Time;durP1;ratioP1;P1;durP2;ratioP2;P2;SDS_P1;SDS_P2;PMS_P1;PMS_P2;Temp;Humidity;BMP_temperature;BMP_pressure;BME280_temperature;BME280_humidity;BME280_pressure;Samples;Min_cycle;Max_cycle;Signal;HPM_P1;HPM_P2
2022/01/06 00:01:34;;;;;;;68.72;30.23;;;;;;;6.14;80.56;99201.94;5031534;28;20040;-81
2022/01/06 00:04:00;;;;;;;54.35;25.77;;;;;;;6.38;79.60;99197.81;5030955;28;20030;-76
2022/01/06 00:06:25;;;;;;;59.80;26.75;;;;;;;6.61;77.84;99192.13;5035401;28;20280;-79
2022/01/06 00:08:54;;;;;;;60.90;24.73;;;;;;;6.44;77.08;99180.63;5035880;28;20319;-76
2022/01/06 00:11:19;;;;;;;60.00;27.10;;;;;;;6.05;78.29;99191.34;5032630;28;20033;-80
2022/01/06 00:17:15;;;;;;;67.90;30.83;;;;;;;6.02;78.67;99211.84;5036295;28;20048;-75
2022/01/06 00:24:11;;;;;;;56.88;26.75;;;;;;;5.98;78.34;99231.50;5035228;28;20040;-76
2022/01/06 00:26:37;;;;;;;52.95;26.55;;;;;;;5.81;80.48;99240.94;5030073;28;20100;-76
2022/01/06 00:29:02;;;;;;;54.30;26.35;;;;;;;5.97;79.64;99233.28;5037367;28;20029;-76
2022/01/06 00:31:28;;;;;;;50.13;25.27;;;;;;;6.14;77.95;99221.19;5037478;28;20026;-80
2022/01/06 00:33:54;;;;;;;51.85;24.80;;;;;;;6.19;77.09;99207.59;5038126;28;20040;-80
2022/01/06 00:36:19;;;;;;;52.42;25.35;;;;;;;6.19;77.14;99220.72;5034887;28;20094;-76
2022/01/06 00:38:45;;;;;;;58.13;26.60;;;;;;;5.81;79.02;99224.34;5031913;28;20101;-75
2022/01/06 00:41:10;;;;;;;64.78;27.92;;;;;;;5.93;79.17;99218.78;5037217;28;20127;-76
2022/01/06 00:43:36;;;;;;;73.97;32.03;;;;;;;6.09;77.55;99207.66;5037361;28;20033;-76
2022/01/06 00:46:01;;;;;;;68.13;31.15;;;;;;;6.16;76.82;99190.31;5035738;28;20026;-76
2022/01/06 00:48:27;;;;;;;59.22;26.60;;;;;;;6.15;77.74;99219.38;5035771;28;20048;-75
2022/01/06 00:50:52;;;;;;;63.55;27.95;;;;;;;6.19;77.57;99216.31;5033230;28;20227;-80
2022/01/06 00:53:18;;;;;;;80.68;34.20;;;;;;;6.13;77.16;99203.75;5034513;28;20212;-80
2022/01/06 00:55:43;;;;;;;77.78;34.28;;;;;;;6.28;76.28;99196.22;5033840;28;20052;-79
2022/01/06 00:58:09;;;;;;;64.80;27.42;;;;;;;6.27;75.78;99210.34;5036747;28;20025;-76
2022/01/06 01:00:40;;;;;;;80.05;32.92;;;;;;;6.31;74.23;99211.69;5034264;28;20034;-75
2022/01/06 01:03:17;;;;;;;84.63;32.22;;;;;;;6.21;74.65;99181.97;5031701;28;20029;-75
2022/01/06 01:05:44;;;;;;;99.85;39.10;;;;;;;6.23;75.32;99193.19;5033115;28;20033;-76
2022/01/06 01:08:11;;;;;;;88.25;34.92;;;;;;;6.19;75.66;99190.00;5041907;28;20038;-80
2022/01/06 01:10:37;;;;;;;83.72;32.80;;;;;;;6.22;73.47;99168.69;5038731;28;20048;-76
2022/01/06 01:13:04;;;;;;;62.30;27.65;;;;;;;5.72;73.41;99174.31;5040103;28;20022;-79
2022/01/06 01:15:32;;;;;;;55.22;25.23;;;;;;;5.48;76.54;99196.81;5039530;28;20029;-80
2022/01/06 01:18:05;;;;;;;53.67;25.13;;;;;;;5.42;77.07;99192.97;5037951;28;20362;-74
2022/01/06 01:20:32;;;;;;;59.67;26.55;;;;;;;5.41;77.73;99184.25;5039592;28;20241;-81
2022/01/06 01:22:57;;;;;;;56.22;24.80;;;;;;;5.56;76.99;99203.00;5034860;28;20400;-80
2022/01/06 01:25:23;;;;;;;59.40;25.58;;;;;;;5.60;76.48;99193.03;5036433;28;20033;-80
2022/01/06 01:27:49;;;;;;;57.00;25.35;;;;;;;5.63;76.55;99183.06;5037805;28;20033;-75
2022/01/06 01:30:15;;;;;;;61.13;26.42;;;;;;;5.38;76.88;99168.78;5039439;28;20033;-75
2022/01/06 01:32:49;;;;;;;55.25;26.27;;;;;;;5.53;77.31;99177.03;5037382;28;20350;-79
2022/01/06 01:35:15;;;;;;;71.57;32.92;;;;;;;5.29;76.68;99167.03;5032032;28;20350;-76
2022/01/06 01:37:41;;;;;;;67.73;37.87;;;;;;;5.48;77.23;99162.69;5039661;28;20319;-76
2022/01/06 01:40:09;;;;;;;84.80;43.78;;;;;;;5.17;76.33;99147.13;5038588;28;20117;-80
2022/01/06 01:42:34;;;;;;;85.88;48.97;;;;;;;5.43;76.39;99168.34;5035255;28;20029;-76
2022/01/06 01:45:02;;;;;;;71.00;34.13;;;;;;;5.69;76.00;99176.41;5037833;28;20044;-75
2022/01/06 01:47:31;;;;;;;60.55;28.20;;;;;;;5.54;76.50;99149.78;5038793;28;20057;-82
2022/01/06 01:50:11;;;;;;;59.38;26.92;;;;;;;5.68;75.12;99165.09;5039269;28;20339;-81
2022/01/06 01:52:39;;;;;;;58.78;26.42;;;;;;;5.72;75.25;99163.00;5038349;28;20083;-76
2022/01/06 01:55:05;;;;;;;57.60;25.77;;;;;;;5.63;76.29;99169.13;5037908;28;20147;-81
2022/01/06 01:57:30;;;;;;;59.28;28.10;;;;;;;5.66;75.54;99169.66;5036870;28;20029;-76
2022/01/06 01:59:56;;;;;;;74.45;29.73;;;;;;;5.82;75.81;99169.03;5039798;28;20037;-76
2022/01/06 02:02:22;;;;;;;62.80;28.15;;;;;;;5.63;76.93;99174.38;5038360;28;20312;-81
2022/01/06 02:04:50;;;;;;;74.22;29.25;;;;;;;5.53;76.69;99169.16;5037134;28;20033;-80
2022/01/06 02:07:15;;;;;;;72.07;28.35;;;;;;;5.69;75.09;99165.91;5038783;28;20025;-75
2022/01/06 02:09:41;;;;;;;72.65;29.45;;;;;;;5.62;75.80;99176.16;5039034;28;20033;-75
2022/01/06 02:12:07;;;;;;;72.85;29.13;;;;;;;5.56;76.06;99182.00;5040135;28;20033;-80
2022/01/06 02:14:34;;;;;;;87.03;30.88;;;;;;;5.71;74.84;99177.91;5041076;28;20017;-80
2022/01/06 02:17:00;;;;;;;71.10;26.73;;;;;;;5.71;75.75;99177.09;5038696;28;20072;-80
2022/01/06 02:19:26;;;;;;;71.78;28.10;;;;;;;5.51;75.56;99152.72;5031757;28;21179;-76
2022/01/06 02:21:52;;;;;;;60.15;25.88;;;;;;;5.52;76.39;99178.00;5038006;28;20104;-80
2022/01/06 02:24:17;;;;;;;53.85;25.52;;;;;;;5.72;75.75;99178.75;5040348;28;20335;-81
2022/01/06 02:26:43;;;;;;;55.25;25.20;;;;;;;5.37;77.14;99174.19;5040108;28;20037;-75
2022/01/06 02:29:10;;;;;;;51.60;24.70;;;;;;;5.60;76.11;99177.28;5037901;28;20029;-75
2022/01/06 02:31:43;;;;;;;52.85;24.98;;;;;;;5.54;76.82;99180.47;5036471;28;20080;-76
2022/01/06 02:34:09;;;;;;;44.90;20.53;;;;;;;5.56;75.90;99186.41;5035378;28;20025;-80
2022/01/06 02:36:35;;;;;;;53.85;25.05;;;;;;;5.64;75.44;99178.66;5038426;28;20464;-76
2022/01/06 02:39:00;;;;;;;52.20;26.35;;;;;;;5.64;76.23;99192.59;5034839;28;20037;-75
2022/01/06 02:41:26;;;;;;;56.58;27.75;;;;;;;5.28;77.95;99193.41;5036948;28;20033;-75
2022/01/06 02:43:51;;;;;;;56.20;26.40;;;;;;;5.47;77.46;99190.72;5037657;28;20033;-77
2022/01/06 02:46:17;;;;;;;61.80;28.17;;;;;;;5.53;76.92;99177.03;5036666;28;20041;-76
2022/01/06 02:48:42;;;;;;;63.67;28.25;;;;;;;5.62;75.76;99181.41;5032299;28;20342;-80
2022/01/06 02:51:08;;;;;;;62.28;30.45;;;;;;;5.40;77.15;99171.28;5037577;28;20029;-75
2022/01/06 02:53:33;;;;;;;66.20;30.05;;;;;;;5.58;76.59;99163.47;5037353;28;20033;-75
2022/01/06 02:56:00;;;;;;;61.55;31.35;;;;;;;5.60;75.25;99159.72;5039067;28;20049;-80
2022/01/06 02:58:26;;;;;;;58.85;27.50;;;;;;;5.51;74.46;99168.47;5037130;28;20150;-79
2022/01/06 03:00:51;;;;;;;63.33;27.60;;;;;;;5.42;72.78;99161.44;5039443;28;20026;-79
2022/01/06 03:03:17;;;;;;;71.25;32.22;;;;;;;5.34;73.51;99171.84;5038729;28;20041;-80
2022/01/06 03:05:43;;;;;;;125.30;38.10;;;;;;;5.32;75.78;99168.53;5036395;28;20260;-79
2022/01/06 03:08:08;;;;;;;83.65;33.50;;;;;;;5.40;75.62;99164.22;5029255;28;20033;-75
2022/01/06 03:10:37;;;;;;;74.13;33.15;;;;;;;4.91;77.70;99162.66;5033562;28;20048;-76
2022/01/06 03:13:03;;;;;;;72.70;33.80;;;;;;;4.90;79.01;99176.72;5035714;28;20339;-81
2022/01/06 03:15:29;;;;;;;72.50;33.53;;;;;;;4.91;79.76;99188.06;5035649;28;20040;-81
2022/01/06 03:17:56;;;;;;;64.78;30.90;;;;;;;4.97;79.30;99169.97;5038801;28;20041;-76
2022/01/06 03:20:23;;;;;;;64.28;31.08;;;;;;;5.46;77.69;99191.69;5039112;28;20033;-80
2022/01/06 03:22:53;;;;;;;66.88;28.63;;;;;;;5.38;77.96;99181.91;5038697;28;20223;-75
2022/01/06 03:25:20;;;;;;;61.17;27.73;;;;;;;5.51;77.47;99189.47;5037950;28;20025;-75
2022/01/06 03:27:46;;;;;;;57.90;26.73;;;;;;;5.57;76.80;99188.06;5037859;28;20052;-76
2022/01/06 03:30:18;;;;;;;64.47;29.60;;;;;;;5.28;77.47;99169.78;5033808;28;20331;-77
2022/01/06 03:32:44;;;;;;;67.90;29.90;;;;;;;5.19;77.93;99181.94;5032633;28;20301;-81
2022/01/06 03:35:13;;;;;;;83.22;36.55;;;;;;;5.36;78.45;99201.41;5034343;28;20026;-75
2022/01/06 03:37:39;;;;;;;67.38;31.50;;;;;;;5.35;78.17;99195.31;5034057;28;20290;-76
2022/01/06 03:40:06;;;;;;;65.90;29.10;;;;;;;5.29;78.20;99195.91;5032332;28;20029;-76
2022/01/06 03:42:36;;;;;;;71.05;28.98;;;;;;;5.35;78.11;99205.00;5039227;28;20057;-76
2022/01/06 03:45:07;;;;;;;66.30;27.15;;;;;;;5.36;77.21;99186.47;5038008;28;20036;-80
2022/01/06 03:47:33;;;;;;;58.83;28.45;;;;;;;5.28;78.78;99203.91;5036309;28;20030;-76
2022/01/06 03:49:58;;;;;;;56.28;27.35;;;;;;;5.17;78.87;99191.75;5035016;28;20044;-76
2022/01/06 03:52:24;;;;;;;61.90;29.25;;;;;;;5.09;80.27;99202.13;5034441;28;20069;-80
2022/01/06 03:54:51;;;;;;;69.72;32.35;;;;;;;5.22;79.22;99207.94;5036735;28;20299;-75
2022/01/06 03:57:17;;;;;;;61.05;28.80;;;;;;;4.96;79.95;99189.28;5038324;28;20053;-77
2022/01/06 03:59:42;;;;;;;55.90;28.42;;;;;;;5.05;80.48;99214.69;5037376;28;20021;-80
2022/01/06 04:02:08;;;;;;;63.22;29.77;;;;;;;4.93;80.25;99201.88;5036821;28;20029;-79
2022/01/06 04:04:34;;;;;;;65.13;29.83;;;;;;;4.95;80.27;99220.91;5036626;28;20041;-76
2022/01/06 04:06:59;;;;;;;55.40;27.58;;;;;;;5.26;78.94;99214.56;5035775;28;20263;-74
2022/01/06 04:09:25;;;;;;;61.38;26.67;;;;;;;5.33;76.80;99206.94;5034956;28;20021;-75
2022/01/06 04:11:50;;;;;;;60.45;28.02;;;;;;;5.35;77.41;99213.69;5035384;28;20033;-75
2022/01/06 04:14:16;;;;;;;51.47;26.55;;;;;;;5.38;77.10;99202.09;5035028;28;20255;-80
2022/01/06 04:16:41;;;;;;;61.50;29.50;;;;;;;5.43;77.07;99215.63;5035604;28;20053;-76
2022/01/06 04:19:07;;;;;;;65.60;28.38;;;;;;;5.23;76.51;99177.25;5035810;28;20033;-76
2022/01/06 04:21:34;;;;;;;81.93;31.95;;;;;;;5.45;75.64;99205.81;5039690;28;20116;-80
2022/01/06 04:23:59;;;;;;;69.05;31.60;;;;;;;5.20;77.56;99227.38;5035877;28;20045;-76
2022/01/06 04:26:25;;;;;;;62.72;29.67;;;;;;;5.26;76.80;99221.59;5040775;28;20124;-80
2022/01/06 04:28:50;;;;;;;76.65;33.17;;;;;;;5.03;77.48;99207.94;5042604;28;20033;-80
2022/01/06 04:31:16;;;;;;;65.75;29.88;;;;;;;4.95;78.80;99229.63;5042293;28;20048;-75
2022/01/06 04:33:42;;;;;;;66.00;30.20;;;;;;;4.77;80.13;99233.91;5042135;28;20256;-76
2022/01/06 04:36:08;;;;;;;62.85;28.85;;;;;;;4.97;79.46;99227.69;5041111;28;20326;-80
2022/01/06 04:38:36;;;;;;;64.65;27.70;;;;;;;5.02;79.08;99216.75;5041863;28;20087;-79
2022/01/06 04:41:02;;;;;;;54.35;26.10;;;;;;;5.27;77.64;99212.75;5042310;28;20109;-76
2022/01/06 04:43:28;;;;;;;69.03;35.65;;;;;;;4.97;78.69;99188.31;5046072;28;20223;-76
2022/01/06 04:45:53;;;;;;;79.32;36.25;;;;;;;5.25;77.35;99220.78;5044968;28;20018;-76
2022/01/06 04:48:19;;;;;;;54.25;28.52;;;;;;;4.97;78.15;99193.56;5046157;28;20417;-76
2022/01/06 04:50:45;;;;;;;54.15;26.48;;;;;;;5.00;78.38;99210.84;5046364;28;20033;-80
2022/01/06 04:53:10;;;;;;;58.10;30.77;;;;;;;5.30;77.17;99218.56;5045935;28;20380;-76
2022/01/06 04:55:36;;;;;;;54.80;26.23;;;;;;;5.04;77.33;99196.47;5046040;28;20331;-74
2022/01/06 04:58:01;;;;;;;51.05;26.40;;;;;;;4.98;78.68;99218.00;5045916;28;20095;-75
2022/01/06 05:00:27;;;;;;;64.35;29.95;;;;;;;5.08;77.93;99216.22;5046061;28;20064;-76
2022/01/06 05:02:52;;;;;;;54.53;26.75;;;;;;;5.01;78.23;99215.09;5046291;28;20088;-81
2022/01/06 05:05:18;;;;;;;46.90;22.33;;;;;;;5.06;77.59;99218.16;5044634;28;20025;-76
2022/01/06 05:07:44;;;;;;;50.63;22.80;;;;;;;4.99;76.87;99217.03;5045864;28;20327;-76
2022/01/06 05:10:11;;;;;;;51.55;23.67;;;;;;;4.97;77.46;99227.69;5045769;28;20334;-81
2022/01/06 05:12:44;;;;;;;46.28;22.20;;;;;;;4.71;78.48;99244.94;5041383;28;20301;-79
2022/01/06 05:15:12;;;;;;;44.13;23.20;;;;;;;4.87;77.62;99237.34;5036106;28;20087;-76
2022/01/06 05:17:38;;;;;;;52.70;25.40;;;;;;;5.01;76.13;99230.84;5034331;28;20068;-79
2022/01/06 05:20:05;;;;;;;59.88;26.75;;;;;;;4.96;76.56;99238.31;5039528;28;20041;-76
2022/01/06 05:22:31;;;;;;;64.68;27.13;;;;;;;5.02;76.65;99249.09;5040086;28;20033;-80
2022/01/06 05:24:57;;;;;;;59.17;28.40;;;;;;;5.01;76.84;99242.19;5035310;28;20044;-76
2022/01/06 05:27:23;;;;;;;71.33;31.80;;;;;;;4.90;77.07;99247.56;5038440;28;20033;-75
2022/01/06 05:29:49;;;;;;;64.20;29.83;;;;;;;4.80;77.49;99242.31;5035737;28;20041;-76
2022/01/06 05:32:14;;;;;;;62.83;29.60;;;;;;;4.80;77.12;99213.47;5037607;28;20117;-76
2022/01/06 05:34:40;;;;;;;64.27;30.43;;;;;;;4.81;77.31;99238.72;5039549;28;20022;-80
2022/01/06 05:37:06;;;;;;;67.07;30.77;;;;;;;4.73;77.65;99245.63;5035474;28;20283;-76
2022/01/06 05:39:31;;;;;;;75.53;31.13;;;;;;;4.89;77.03;99259.03;5040212;28;20031;-74
2022/01/06 05:41:57;;;;;;;58.43;29.83;;;;;;;4.85;77.27;99259.44;5038668;28;20022;-76
2022/01/06 05:44:24;;;;;;;57.20;28.70;;;;;;;4.73;77.55;99267.44;5037522;28;20021;-75
2022/01/06 05:46:49;;;;;;;65.00;29.08;;;;;;;4.95;76.97;99260.28;5039173;28;20064;-80
2022/01/06 05:49:15;;;;;;;64.95;32.95;;;;;;;4.94;76.91;99256.00;5038550;28;20038;-77
2022/01/06 05:51:41;;;;;;;68.13;32.10;;;;;;;4.89;76.89;99280.00;5040108;28;20109;-77
2022/01/06 05:54:06;;;;;;;62.63;31.10;;;;;;;4.70;77.30;99257.22;5039102;28;20088;-75
2022/01/06 05:56:32;;;;;;;57.97;28.00;;;;;;;4.79;77.14;99280.00;5037145;28;20096;-75
2022/01/06 05:58:58;;;;;;;55.70;26.02;;;;;;;4.56;77.76;99256.78;5035135;28;20029;-76
2022/01/06 06:01:23;;;;;;;47.03;24.10;;;;;;;4.66;77.95;99266.31;5041727;28;20018;-81
2022/01/06 06:03:49;;;;;;;45.83;23.87;;;;;;;4.42;79.27;99269.31;5038855;28;20025;-76
2022/01/06 06:06:15;;;;;;;48.70;22.55;;;;;;;4.62;78.12;99264.94;5038578;28;20033;-75
2022/01/06 06:08:40;;;;;;;43.27;21.67;;;;;;;4.74;78.05;99257.78;5038698;28;20040;-74
2022/01/06 06:11:06;;;;;;;61.37;28.80;;;;;;;4.72;78.23;99271.03;5055094;28;20052;-81
2022/01/06 06:13:32;;;;;;;61.40;29.00;;;;;;;4.94;77.30;99283.06;5063563;28;20796;-80
2022/01/06 06:15:58;;;;;;;64.03;33.90;;;;;;;4.76;78.10;99282.06;5063530;28;20094;-76
2022/01/06 06:18:23;;;;;;;81.70;35.30;;;;;;;4.96;77.23;99298.66;5062966;28;20147;-75
2022/01/06 06:20:50;;;;;;;68.60;32.95;;;;;;;4.70;78.17;99296.56;5062948;28;20029;-76
2022/01/06 06:23:15;;;;;;;68.82;32.45;;;;;;;4.76;77.57;99271.59;5062067;28;20049;-77
2022/01/06 06:25:41;;;;;;;58.90;30.23;;;;;;;4.93;77.60;99299.75;5063338;28;20310;-81
2022/01/06 06:28:07;;;;;;;58.30;29.70;;;;;;;5.05;77.38;99297.84;5062173;28;20146;-76
2022/01/06 06:30:33;;;;;;;73.40;34.40;;;;;;;5.18;76.80;99294.94;5063528;28;20051;-75
2022/01/06 06:33:01;;;;;;;67.28;32.45;;;;;;;5.28;76.26;99286.13;5062536;28;20029;-79
2022/01/06 06:35:26;;;;;;;71.87;31.73;;;;;;;5.39;75.86;99285.97;5062026;28;20024;-76
2022/01/06 06:37:52;;;;;;;60.60;29.63;;;;;;;5.61;74.92;99297.13;5063048;28;20095;-76
2022/01/06 06:40:22;;;;;;;62.22;31.25;;;;;;;5.55;75.26;99285.38;5063006;28;20071;-79
2022/01/06 06:42:48;;;;;;;67.50;32.72;;;;;;;5.66;75.31;99287.03;5063011;28;20043;-75
2022/01/06 06:45:15;;;;;;;72.38;32.20;;;;;;;5.36;76.34;99298.53;5062917;28;20067;-76
2022/01/06 06:47:41;;;;;;;83.50;38.67;;;;;;;5.59;76.01;99292.00;5061474;28;20111;-76
2022/01/06 06:50:07;;;;;;;81.15;34.55;;;;;;;5.65;75.12;99288.81;5063078;28;20298;-80
2022/01/06 06:52:33;;;;;;;69.18;34.45;;;;;;;5.67;74.74;99284.25;5062766;28;20049;-76
2022/01/06 06:54:58;;;;;;;119.20;63.92;;;;;;;5.84;74.57;99306.34;5061682;28;20035;-75
2022/01/06 06:57:24;;;;;;;60.13;30.95;;;;;;;5.94;74.22;99303.72;5062871;28;20047;-76
2022/01/06 06:59:49;;;;;;;50.78;27.10;;;;;;;5.96;74.19;99299.97;5062751;28;20234;-80
2022/01/06 07:02:15;;;;;;;49.83;22.42;;;;;;;6.07;73.69;99301.59;5061517;28;20048;-79
2022/01/06 07:04:40;;;;;;;43.40;23.02;;;;;;;6.04;74.58;99297.44;5061940;28;20024;-80
2022/01/06 07:07:06;;;;;;;34.03;19.13;;;;;;;5.62;75.62;99285.66;5062558;28;20055;-76
2022/01/06 07:09:31;;;;;;;51.50;20.35;;;;;;;5.63;76.04;99303.91;5062835;28;20031;-81
2022/01/06 07:11:57;;;;;;;60.75;24.52;;;;;;;5.60;76.60;99321.72;5062412;28;20035;-76
2022/01/06 07:14:22;;;;;;;53.80;22.35;;;;;;;5.89;75.17;99327.78;5062493;28;20025;-76
2022/01/06 07:16:48;;;;;;;38.35;18.05;;;;;;;5.68;75.56;99320.06;5061219;28;20040;-76
2022/01/06 07:19:13;;;;;;;45.03;22.20;;;;;;;5.96;75.28;99322.78;5044156;28;20033;-76
2022/01/06 07:21:39;;;;;;;220.60;56.75;;;;;;;6.00;74.63;99332.03;5035747;28;20022;-79
2022/01/06 07:24:05;;;;;;;134.07;41.28;;;;;;;5.68;75.40;99311.34;5036696;28;20033;-80
2022/01/06 07:26:31;;;;;;;81.32;29.48;;;;;;;6.08;75.00;99332.97;5035929;28;20031;-75
2022/01/06 07:28:57;;;;;;;55.85;25.10;;;;;;;6.35;74.77;99334.84;5036983;28;20320;-74
2022/01/06 07:31:22;;;;;;;207.00;55.05;;;;;;;6.45;73.75;99337.44;5035783;28;20219;-75
2022/01/06 07:33:48;;;;;;;99.22;54.92;;;;;;;6.56;73.47;99334.59;5036268;28;20044;-76
2022/01/06 07:36:14;;;;;;;64.25;31.05;;;;;;;6.56;73.94;99342.50;5035812;28;20030;-80
2022/01/06 07:38:39;;;;;;;61.13;27.23;;;;;;;6.73;73.51;99348.78;5035892;28;20052;-76
2022/01/06 07:41:05;;;;;;;59.78;26.83;;;;;;;6.70;73.40;99331.47;5036509;28;20037;-75
2022/01/06 07:43:30;;;;;;;66.25;25.45;;;;;;;6.83;73.72;99349.56;5035435;28;20247;-77
2022/01/06 07:45:56;;;;;;;49.42;21.23;;;;;;;6.83;73.52;99356.63;5036255;28;20026;-81
2022/01/06 07:48:29;;;;;;;44.95;21.08;;;;;;;6.66;74.85;99339.81;5035920;28;20275;-77
2022/01/06 07:50:54;;;;;;;45.37;21.03;;;;;;;6.86;73.59;99338.72;5036095;28;20076;-81
2022/01/06 07:53:20;;;;;;;46.72;22.65;;;;;;;6.78;74.30;99324.66;5035847;28;20033;-76
2022/01/06 07:55:46;;;;;;;66.22;31.70;;;;;;;6.66;74.15;99327.50;5035849;28;20025;-81
2022/01/06 07:58:11;;;;;;;80.45;34.15;;;;;;;6.68;74.66;99319.44;5035046;28;20025;-80
2022/01/06 08:00:37;;;;;;;74.75;28.50;;;;;;;6.91;74.10;99322.50;5035394;28;20041;-81
2022/01/06 08:03:02;;;;;;;56.58;25.05;;;;;;;6.83;74.56;99335.56;5034422;28;20041;-80
2022/01/06 08:05:28;;;;;;;47.08;23.27;;;;;;;6.80;75.05;99333.22;5035971;28;20136;-81
2022/01/06 08:07:55;;;;;;;44.13;22.17;;;;;;;6.98;74.47;99347.25;5035941;28;20399;-76
2022/01/06 08:10:21;;;;;;;52.47;23.08;;;;;;;7.07;75.19;99342.88;5035353;28;20033;-76
2022/01/06 08:12:47;;;;;;;45.17;22.20;;;;;;;7.28;74.87;99352.19;5035849;28;20092;-80
2022/01/06 08:15:16;;;;;;;49.95;22.85;;;;;;;7.61;73.05;99350.66;5035323;28;20068;-76
2022/01/06 08:17:42;;;;;;;46.83;22.15;;;;;;;7.52;73.31;99351.56;5035110;28;20315;-79
2022/01/06 08:20:09;;;;;;;45.42;23.48;;;;;;;7.55;73.31;99353.06;5034875;28;20029;-80
2022/01/06 08:22:35;;;;;;;43.60;21.15;;;;;;;7.59;73.00;99352.59;5036623;28;20037;-80
2022/01/06 08:25:02;;;;;;;39.33;19.58;;;;;;;7.78;72.41;99354.22;5035079;28;20618;-80
2022/01/06 08:27:28;;;;;;;31.83;17.50;;;;;;;7.54;73.17;99352.25;5036308;28;20338;-80
2022/01/06 08:29:53;;;;;;;58.78;22.95;;;;;;;7.38;74.89;99352.09;5035528;28;20047;-79
2022/01/06 08:32:20;;;;;;;127.45;32.55;;;;;;;7.79;73.97;99353.25;5034810;28;20216;-75
2022/01/06 08:34:46;;;;;;;66.55;24.50;;;;;;;7.75;73.52;99337.91;5036072;28;20286;-76
2022/01/06 08:37:13;;;;;;;754.08;152.10;;;;;;;7.74;74.20;99347.63;5034647;28;20231;-81
2022/01/06 08:39:38;;;;;;;100.70;27.85;;;;;;;7.57;74.60;99357.19;5036477;28;20037;-77
2022/01/06 08:42:04;;;;;;;56.42;22.08;;;;;;;7.54;75.48;99348.78;5033593;28;20029;-77
2022/01/06 08:44:30;;;;;;;74.03;26.60;;;;;;;8.00;73.51;99359.00;5034862;28;20097;-79
2022/01/06 08:46:58;;;;;;;60.83;25.42;;;;;;;8.22;73.01;99359.47;5034845;28;20048;-76
2022/01/06 08:49:24;;;;;;;44.65;22.10;;;;;;;8.09;73.48;99356.41;5035494;28;20385;-77
2022/01/06 08:51:49;;;;;;;62.22;24.33;;;;;;;8.54;72.18;99369.41;5035671;28;20293;-81
2022/01/06 08:54:15;;;;;;;46.53;21.00;;;;;;;8.74;71.53;99362.91;5034884;28;20052;-81
2022/01/06 08:56:41;;;;;;;40.58;20.35;;;;;;;8.93;70.66;99369.72;5035944;28;20061;-75
2022/01/06 08:59:06;;;;;;;36.13;19.58;;;;;;;9.00;71.12;99362.81;5034317;28;20339;-76
2022/01/06 09:01:32;;;;;;;37.60;20.30;;;;;;;9.11;70.33;99361.69;5035364;28;20061;-77
2022/01/06 09:03:58;;;;;;;39.05;20.52;;;;;;;9.17;70.36;99371.59;5050810;28;20339;-80
2022/01/06 09:06:24;;;;;;;39.80;20.05;;;;;;;9.39;69.28;99365.72;5034858;28;20044;-81
2022/01/06 09:08:50;;;;;;;38.78;18.73;;;;;;;9.40;69.44;99359.44;5035183;28;20031;-80
2022/01/06 09:11:16;;;;;;;37.50;19.00;;;;;;;9.56;69.61;99359.44;5035566;28;20037;-80
2022/01/06 09:13:42;;;;;;;43.13;19.88;;;;;;;9.46;70.16;99365.88;5035879;28;20670;-77
2022/01/06 09:16:08;;;;;;;35.47;17.55;;;;;;;9.59;69.51;99359.13;5034331;28;20026;-81
2022/01/06 09:18:38;;;;;;;41.38;19.58;;;;;;;9.78;68.22;99357.97;5036107;28;20282;-81
2022/01/06 09:21:04;;;;;;;40.47;20.20;;;;;;;9.94;68.36;99362.41;5034504;28;21422;-76
2022/01/06 09:23:30;;;;;;;49.47;19.77;;;;;;;9.81;68.54;99320.59;5033473;28;20038;-81
2022/01/06 09:25:56;;;;;;;50.95;25.38;;;;;;;9.85;69.52;99364.22;5035586;28;20053;-77
2022/01/06 09:28:21;;;;;;;43.25;21.40;;;;;;;9.80;70.34;99371.00;5036300;28;20442;-77
2022/01/06 09:30:47;;;;;;;42.35;18.85;;;;;;;9.90;70.14;99355.81;5039215;28;20342;-81
2022/01/06 09:33:13;;;;;;;35.97;17.45;;;;;;;9.86;69.86;99346.56;5037470;28;20022;-80
2022/01/06 09:35:39;;;;;;;35.72;17.65;;;;;;;9.89;70.12;99359.44;5038234;28;20037;-77
2022/01/06 09:38:05;;;;;;;43.78;20.00;;;;;;;9.73;71.10;99352.34;5038371;28;20021;-81
2022/01/06 09:40:31;;;;;;;46.63;20.95;;;;;;;9.96;70.23;99355.13;5039135;28;20093;-77
2022/01/06 09:42:56;;;;;;;39.78;18.75;;;;;;;9.83;70.34;99360.09;5037314;28;20092;-81
2022/01/06 09:45:26;;;;;;;35.08;18.60;;;;;;;9.92;70.95;99346.72;5038911;28;20346;-76
2022/01/06 09:47:52;;;;;;;32.50;17.50;;;;;;;10.30;69.55;99335.56;5037211;28;20118;-76
2022/01/06 09:50:18;;;;;;;32.35;16.52;;;;;;;10.38;68.52;99349.59;5038171;28;20076;-81
2022/01/06 09:52:44;;;;;;;26.58;14.85;;;;;;;10.37;68.17;99350.59;5038455;28;20347;-81
2022/01/06 09:55:10;;;;;;;36.00;16.35;;;;;;;10.53;67.51;99357.69;5038299;28;20071;-77
2022/01/06 09:57:35;;;;;;;37.20;18.00;;;;;;;10.23;68.91;99333.59;5038345;28;20307;-81
2022/01/06 10:00:04;;;;;;;38.28;18.92;;;;;;;10.43;68.82;99342.00;5037793;28;20064;-81
2022/01/06 10:02:35;;;;;;;37.80;21.50;;;;;;;10.64;68.23;99344.09;5051605;28;20041;-76
2022/01/06 10:05:01;;;;;;;51.45;21.35;;;;;;;10.81;67.46;99345.66;5037604;28;21629;-78
2022/01/06 10:07:35;;;;;;;53.78;24.20;;;;;;;10.82;67.61;99336.72;5037516;28;20037;-77
2022/01/06 10:10:25;;;;;;;59.25;24.77;;;;;;;10.75;66.87;99319.88;5038771;28;20256;-76
2022/01/06 10:16:13;;;;;;;46.90;26.02;;;;;;;11.02;67.32;99336.28;5037971;28;20056;-81
2022/01/06 10:22:00;;;;;;;63.90;24.92;;;;;;;11.00;67.06;99328.50;5043006;28;20071;-75
2022/01/06 10:24:27;;;;;;;43.63;22.00;;;;;;;10.77;68.09;99325.00;5044544;28;20033;-77
2022/01/06 10:27:17;;;;;;;40.95;19.70;;;;;;;11.11;68.18;99325.44;5040826;28;20076;-76
2022/01/06 10:29:50;;;;;;;32.42;18.42;;;;;;;11.10;68.49;99329.09;5041464;28;20389;-76
2022/01/06 10:32:19;;;;;;;39.25;19.00;;;;;;;10.93;66.92;99290.47;5038006;28;20205;-76
2022/01/06 10:34:50;;;;;;;53.75;23.98;;;;;;;10.95;66.77;99299.06;5036468;28;20100;-76
2022/01/06 10:37:35;;;;;;;41.78;22.83;;;;;;;11.15;67.25;99320.63;5037344;28;20224;-76
2022/01/06 10:40:11;;;;;;;40.70;22.40;;;;;;;11.35;65.85;99318.31;5036667;28;20045;-76
2022/01/06 10:42:40;;;;;;;43.38;22.23;;;;;;;11.49;65.41;99301.69;5037280;28;20105;-76
2022/01/06 10:45:14;;;;;;;45.58;24.27;;;;;;;11.62;65.23;99299.25;5037664;28;20092;-77
2022/01/06 10:47:45;;;;;;;47.35;23.50;;;;;;;11.58;66.21;99313.03;5035133;28;20033;-77
2022/01/06 10:50:28;;;;;;;39.17;22.38;;;;;;;11.42;66.90;99308.66;5036710;28;20255;-76
2022/01/06 10:53:10;;;;;;;42.35;21.30;;;;;;;11.62;66.30;99306.38;5034989;28;20045;-81
2022/01/06 10:55:42;;;;;;;43.38;23.50;;;;;;;11.80;65.12;99301.59;5035853;28;21455;-76
2022/01/06 10:58:12;;;;;;;41.20;22.00;;;;;;;11.85;65.66;99301.06;5034997;28;20029;-77
2022/01/06 11:00:43;;;;;;;45.95;21.80;;;;;;;11.82;65.91;99303.06;5035360;28;20061;-76
2022/01/06 11:03:11;;;;;;;32.80;18.80;;;;;;;12.05;63.96;99302.16;5035700;28;20029;-76
2022/01/06 11:05:41;;;;;;;31.08;16.65;;;;;;;12.04;65.17;99298.69;5037483;28;20044;-76
2022/01/06 11:08:09;;;;;;;32.88;18.23;;;;;;;11.88;65.00;99280.28;5036333;28;20077;-76
2022/01/06 11:10:39;;;;;;;27.38;15.70;;;;;;;11.81;66.18;99288.16;5036764;28;20045;-76
2022/01/06 11:13:06;;;;;;;43.08;19.95;;;;;;;11.71;66.78;99292.84;5034600;28;20034;-81
2022/01/06 11:15:32;;;;;;;37.45;19.70;;;;;;;11.91;66.18;99292.38;5036491;28;20060;-76
2022/01/06 11:18:00;;;;;;;36.65;18.33;;;;;;;12.11;65.51;99288.16;5034702;28;20251;-81
2022/01/06 11:20:27;;;;;;;29.98;17.70;;;;;;;11.76;65.76;99263.13;5034254;28;20240;-80
2022/01/06 11:22:56;;;;;;;32.22;17.85;;;;;;;11.72;67.22;99285.72;5035889;28;20033;-77
2022/01/06 11:25:35;;;;;;;35.22;18.02;;;;;;;11.93;65.69;99280.56;5035242;28;20079;-76
2022/01/06 11:28:13;;;;;;;37.08;18.30;;;;;;;11.87;66.80;99278.63;5036013;28;20112;-76
2022/01/06 11:30:47;;;;;;;35.88;17.95;;;;;;;11.97;65.20;99260.63;5036791;28;20060;-76
2022/01/06 11:33:13;;;;;;;33.33;17.13;;;;;;;12.01;66.30;99272.53;5035165;28;20354;-77
2022/01/06 11:35:54;;;;;;;34.08;16.98;;;;;;;11.82;66.98;99278.38;5036575;28;20029;-81
2022/01/06 11:38:25;;;;;;;25.73;16.75;;;;;;;11.75;67.00;99272.09;5035093;28;20073;-77